Time;durP1;ratioP1;P1;durP2;ratioP2;P2;SDS_P1;SDS_P2;PMS_P1;PMS_P2;Temp;Humidity;BMP_temperature;BMP_pressure;BME280_temperature;BME280_humidity;BME280_pressure;Samples;Min_cycle;Max_cycle;Signal;HPM_P1;HPM_P2
2021/03/30 04:19:39;;;;;;;9.70;8.70;;;6.50;88.50;;;;;;6053823;22;20218;-89
2021/03/30 04:22:09;;;;;;;10.43;9.50;;;6.40;91.40;;;;;;6063715;22;20297;-90
2021/03/30 04:51:04;;;;;;;12.10;9.73;;;6.10;69.30;;;;;;6059243;22;20214;-89
2021/03/30 05:03:55;;;;;;;17.33;10.02;;;6.30;71.40;;;;;;6082220;23;20233;-89
2021/03/30 05:09:02;;;;;;;11.18;9.90;;;6.10;71.90;;;;;;6091977;22;20189;-91
2021/03/30 05:19:17;;;;;;;11.70;9.93;;;6.20;74.10;;;;;;6087630;23;20205;-91
2021/03/30 05:26:53;;;;;;;13.40;9.93;;;6.20;75.10;;;;;;6076931;23;20201;-89
2021/03/30 05:29:19;;;;;;;12.00;9.37;;;6.00;77.00;;;;;;6150436;22;20336;-87
2021/03/30 05:34:20;;;;;;;10.35;9.35;;;6.10;75.50;;;;;;6096242;23;20235;-90
2021/03/30 05:36:47;;;;;;;10.68;8.93;;;6.20;78.80;;;;;;6201732;23;20173;-91
2021/03/30 05:39:12;;;;;;;17.27;8.53;;;6.20;78.30;;;;;;6101842;23;20146;-92
2021/03/30 05:41:41;;;;;;;9.90;8.53;;;6.10;77.80;;;;;;6078801;23;20181;-89
2021/03/30 05:44:07;;;;;;;11.20;8.90;;;6.10;78.00;;;;;;6100794;23;20172;-87
2021/03/30 05:46:34;;;;;;;11.38;10.27;;;6.30;78.70;;;;;;6099693;23;20621;-90
2021/03/30 05:49:00;;;;;;;12.65;9.52;;;5.80;77.50;;;;;;6076210;23;20147;-87
2021/03/30 05:51:28;;;;;;;14.93;10.02;;;6.10;78.00;;;;;;6106961;23;20161;-91
2021/03/30 05:53:58;;;;;;;17.20;8.70;;;8.40;82.10;;;;;;6083312;23;20196;-89
2021/03/30 05:56:28;;;;;;;17.15;9.65;;;9.10;83.40;;;;;;6085738;23;20146;-88
2021/03/30 05:58:57;;;;;;;13.15;9.85;;;6.30;75.40;;;;;;6181764;23;20162;-91
2021/03/30 06:01:25;;;;;;;11.73;9.60;;;5.40;78.00;;;;;;6099493;23;20232;-90
2021/03/30 06:03:53;;;;;;;17.67;10.70;;;4.80;77.80;;;;;;6076053;23;20161;-89
2021/03/30 06:06:19;;;;;;;18.73;10.10;;;6.60;78.70;;;;;;6077213;23;20621;-90
2021/03/30 06:11:24;;;;;;;10.60;8.70;;;7.50;74.50;;;;;;6073371;23;20589;-88
2021/03/30 06:19:07;;;;;;;11.70;8.10;;;9.10;66.50;;;;;;6042755;23;20402;-88
2021/03/30 06:21:38;;;;;;;9.93;8.50;;;9.60;65.20;;;;;;6200314;23;20910;-88
2021/03/30 06:24:27;;;;;;;12.23;9.40;;;10.10;61.40;;;;;;6200460;23;20386;-90
2021/03/30 06:27:20;;;;;;;12.23;7.40;;;9.90;59.20;;;;;;6072484;23;20381;-89
2021/03/30 06:29:46;;;;;;;15.60;9.77;;;12.50;60.40;;;;;;6082250;23;20413;-91
2021/03/30 06:32:14;;;;;;;16.00;10.50;;;11.20;69.30;;;;;;6073330;23;20857;-89
2021/03/30 06:34:43;;;;;;;10.70;8.57;;;13.00;62.10;;;;;;6088983;23;20370;-90
2021/03/30 06:37:28;;;;;;;16.97;10.63;;;;;;;;;;6087817;23;20386;-90
2021/03/30 06:39:58;;;;;;;10.83;9.20;;;12.30;52.20;;;;;;6097750;23;20369;-88
2021/03/30 06:45:15;;;;;;;15.83;10.60;;;;;;;;;;6106478;23;20374;-89
2021/03/30 06:47:43;;;;;;;15.93;10.43;;;13.40;50.90;;;;;;6196823;23;20385;-89
2021/03/30 06:50:19;;;;;;;13.67;11.83;;;16.30;51.50;;;;;;6072200;23;20445;-89
2021/03/30 06:53:23;;;;;;;14.60;9.80;;;14.10;49.90;;;;;;6094407;23;20778;-91
2021/03/30 06:55:52;;;;;;;13.80;10.60;;;14.70;47.60;;;;;;6210320;23;20393;-91
2021/03/30 06:58:21;;;;;;;13.93;10.57;;;14.90;48.10;;;;;;6080168;23;20462;-90
2021/03/30 07:00:50;;;;;;;11.27;10.20;;;;;;;;;;6080211;23;20387;-90
2021/03/30 07:08:48;;;;;;;12.93;11.53;;;17.00;43.20;;;;;;6064387;22;20511;-88
2021/03/30 07:17:09;;;;;;;14.57;11.40;;;18.00;40.70;;;;;;6075940;23;20753;-91
2021/03/30 07:19:36;;;;;;;12.97;10.60;;;20.90;42.40;;;;;;6087114;23;20398;-92
2021/03/30 07:22:05;;;;;;;16.40;12.10;;;19.00;40.30;;;;;;6108610;23;20493;-91
2021/03/30 07:24:46;;;;;;;17.73;12.20;;;19.40;49.10;;;;;;6074908;23;20394;-91
2021/03/30 07:27:18;;;;;;;17.47;11.17;;;19.90;45.00;;;;;;6110508;23;20361;-89
2021/03/30 07:29:49;;;;;;;12.90;11.60;;;20.20;46.00;;;;;;6113142;23;20443;-90
2021/03/30 07:38:09;;;;;;;18.07;11.30;;;;;;;;;;6046869;23;20466;-89
2021/03/30 07:45:58;;;;;;;11.90;10.60;;;;;;;;;;6083364;22;20469;31
2021/03/30 07:54:16;;;;;;;13.70;10.77;;;23.40;30.10;;;;;;6099214;23;20446;-89
2021/03/30 07:56:41;;;;;;;13.33;11.50;;;25.50;30.70;;;;;;6071162;23;20504;-88
2021/03/30 07:59:08;;;;;;;13.47;12.17;;;24.30;43.30;;;;;;6199724;23;20390;-91
2021/03/30 08:01:36;;;;;;;15.00;12.07;;;24.20;41.70;;;;;;6075489;23;20212;-89
2021/03/30 08:04:06;;;;;;;13.37;11.80;;;24.20;42.00;;;;;;6071497;23;20463;-92
2021/03/30 08:06:35;;;;;;;21.33;12.07;;;24.30;42.00;;;;;;6094247;23;20410;-90
2021/03/30 08:09:07;;;;;;;13.03;11.60;;;24.00;41.00;;;;;;6067537;23;20390;-87
2021/03/30 08:11:49;;;;;;;11.57;10.43;;;24.30;41.00;;;;;;6092697;23;20362;-87
2021/03/30 08:14:26;;;;;;;13.10;11.40;;;25.00;40.00;;;;;;6067300;23;20425;-90
2021/03/30 08:16:54;;;;;;;11.93;10.67;;;24.90;51.20;;;;;;6096514;23;20487;-89
2021/03/30 08:19:20;;;;;;;21.20;11.30;;;24.90;48.70;;;;;;6096078;23;20398;-89
2021/03/30 08:22:08;;;;;;;12.90;11.63;;;25.00;48.60;;;;;;6108791;23;20406;-91
2021/03/30 08:24:45;;;;;;;14.70;10.90;;;25.50;46.00;;;;;;6088119;23;20394;-91
2021/03/30 08:27:47;;;;;;;13.83;9.67;;;26.40;29.00;;;;;;6215106;23;20729;-88
2021/03/30 08:30:37;;;;;;;10.20;8.83;;;26.30;28.80;;;;;;6109747;23;20366;-88
2021/03/30 08:33:04;;;;;;;10.83;9.67;;;27.20;43.80;;;;;;6086449;23;20386;-91
2021/03/30 08:35:55;;;;;;;12.50;8.83;;;27.00;39.80;;;;;;6085895;23;20386;-91
2021/03/30 08:38:46;;;;;;;15.37;9.27;;;30.00;31.60;;;;;;6112711;23;20395;-90
2021/03/30 08:41:48;;;;;;;9.90;8.93;;;29.60;32.90;;;;;;6087121;23;20408;-93
2021/03/30 08:44:32;;;;;;;10.40;9.33;;;28.50;40.00;;;;;;6125993;23;20378;-88
2021/03/30 08:47:36;;;;;;;11.30;9.67;;;28.50;40.10;;;;;;6211521;23;20440;-88
2021/03/30 08:50:55;;;;;;;12.07;10.77;;;28.40;41.20;;;;;;6054195;23;20424;-92
2021/03/30 08:53:24;;;;;;;10.83;9.50;;;28.80;39.30;;;;;;6089019;22;20457;-91
2021/03/30 08:55:52;;;;;;;13.57;11.27;;;28.90;37.50;;;;;;6144071;22;20421;-89
2021/03/30 08:58:18;;;;;;;17.33;10.60;;;30.30;38.30;;;;;;6118356;23;20373;-91
2021/03/30 09:00:47;;;;;;;13.73;11.70;;;29.10;36.40;;;;;;6119901;23;20382;-92
2021/03/30 09:03:13;;;;;;;12.17;10.60;;;29.80;42.10;;;;;;6142467;23;20479;-88
2021/03/30 09:05:41;;;;;;;14.13;12.00;;;30.10;41.60;;;;;;6144808;23;20390;-90
2021/03/30 09:08:11;;;;;;;17.37;14.00;;;29.80;41.20;;;;;;6117408;23;20167;-93
2021/03/30 09:10:39;;;;;;;15.27;13.80;;;29.70;40.10;;;;;;6112914;23;20389;-94
2021/03/30 09:13:18;;;;;;;14.53;13.13;;;29.20;38.30;;;;;;6107293;23;20400;-90
2021/03/30 09:15:47;;;;;;;17.60;15.13;;;28.90;38.50;;;;;;6210909;23;20389;-91
2021/03/30 09:18:33;;;;;;;20.37;15.17;;;28.30;38.10;;;;;;6210660;23;20424;-91
2021/03/30 09:21:22;;;;;;;18.47;16.33;;;28.60;37.70;;;;;;6113607;23;20428;-93
2021/03/30 09:23:55;;;;;;;21.20;16.50;;;28.10;36.00;;;;;;6137112;23;20395;-90
2021/03/30 09:26:28;;;;;;;18.77;16.77;;;28.40;36.20;;;;;;6235076;23;20376;-91
2021/03/30 09:28:54;;;;;;;22.33;18.00;;;28.80;39.80;;;;;;6108412;23;20380;-91
2021/03/30 09:31:24;;;;;;;22.70;19.37;;;28.60;40.30;;;;;;6108930;22;20385;-91
2021/03/30 09:33:54;;;;;;;22.60;19.03;;;28.30;39.70;;;;;;6108444;23;20389;-91
2021/03/30 09:36:42;;;;;;;20.70;16.57;;;28.50;40.80;;;;;;6144426;23;20381;-90
2021/03/30 09:39:08;;;;;;;19.57;17.37;;;;;;;;;;6120572;23;20397;-90
2021/03/30 09:41:41;;;;;;;19.23;17.20;;;;;;;;;;6115769;23;20437;-91
2021/03/30 09:47:13;;;;;;;20.80;17.10;;;;;;;;;;6117181;23;20527;-91
2021/03/30 09:52:24;;;;;;;22.77;16.50;;;;;;;;;;6111506;23;20551;-93
2021/03/30 09:55:05;;;;;;;17.67;14.33;;;;;;;;;;6119167;23;20401;-90
2021/03/30 10:02:44;;;;;;;17.70;15.87;;;;;;;;;;6109642;23;20461;-88
2021/03/30 10:05:12;;;;;;;18.70;16.77;;;;;;;;;;6109271;23;20484;-88
2021/03/30 10:07:42;;;;;;;19.73;17.43;;;;;;;;;;6115503;23;20461;-90
2021/03/30 10:12:56;;;;;;;23.23;18.30;;;;;;;;;;6156998;22;20438;-91
2021/03/30 10:15:33;;;;;;;18.23;16.33;;;;;;;;;;6211590;23;20382;-88
2021/03/30 10:18:05;;;;;;;22.00;15.90;;;;;;;;;;6216000;23;20420;-91
2021/03/30 10:20:54;;;;;;;18.30;15.77;;;;;;;;;;6112658;23;20494;-91
2021/03/30 10:23:26;;;;;;;17.43;15.27;;;;;;;;;;6094149;23;20458;-91
2021/03/30 10:26:26;;;;;;;21.03;17.30;;;;;;;;;;6114995;23;20353;-90
2021/03/30 10:29:11;;;;;;;25.37;17.50;;;;;;;;;;6112886;23;20359;-93
2021/03/30 10:31:58;;;;;;;17.93;15.23;;;;;;;;;;6112801;23;20404;-93
2021/03/30 10:34:30;;;;;;;15.87;11.70;;;;;;;;;;6126187;23;20489;-93
2021/03/30 10:36:59;;;;;;;15.10;13.43;;;;;;;;;;6085111;23;20469;-92
2021/03/30 10:39:42;;;;;;;15.07;13.47;;;;;;;;;;6215249;23;20405;-90
2021/03/30 10:42:11;;;;;;;13.33;11.77;;;;;;;;;;6112455;23;20414;-90
2021/03/30 10:44:42;;;;;;;29.57;22.93;;;;;;;;;;6214431;23;20382;-91
2021/03/30 10:47:31;;;;;;;13.03;11.73;;;;;;;;;;6113772;23;20374;-91
2021/03/30 10:50:15;;;;;;;10.93;9.83;;;31.90;43.10;;;;;;6215061;23;20371;-90
2021/03/30 10:52:55;;;;;;;12.33;11.10;;;32.30;37.40;;;;;;6095153;23;20457;-92
2021/03/30 10:55:54;;;;;;;13.60;12.17;;;34.60;22.90;;;;;;6112642;23;20492;-90
2021/03/30 10:58:20;;;;;;;13.70;12.17;;;35.10;22.70;;;;;;6091081;23;20429;-91
2021/03/30 11:00:46;;;;;;;13.57;12.20;;;34.10;26.30;;;;;;6087850;23;20440;-89
2021/03/30 11:03:12;;;;;;;13.57;11.83;;;33.90;25.90;;;;;;6087810;23;20190;-91
2021/03/30 11:05:38;;;;;;;19.50;17.33;;;34.40;24.80;;;;;;6204948;23;20643;-90
2021/03/30 11:08:04;;;;;;;13.00;11.67;;;33.50;25.30;;;;;;6074797;23;20421;-88
2021/03/30 11:10:42;;;;;;;12.70;11.57;;;33.90;23.60;;;;;;6076761;23;20158;-91
2021/03/30 11:13:16;;;;;;;15.33;12.40;;;36.00;24.70;;;;;;6110076;23;20390;-90
2021/03/30 11:15:56;;;;;;;12.00;10.80;;;33.90;24.70;;;;;;6083850;23;20476;-91
2021/03/30 11:18:24;;;;;;;12.80;11.40;;;34.30;24.30;;;;;;6103456;23;20362;-89
2021/03/30 11:20:50;;;;;;;12.63;11.33;;;34.50;26.40;;;;;;6206838;23;20752;-91
2021/03/30 11:23:23;;;;;;;12.83;11.20;;;34.00;26.60;;;;;;6086201;23;20458;-90
2021/03/30 11:26:16;;;;;;;12.83;11.63;;;34.60;24.40;;;;;;6103026;23;20390;-91
2021/03/30 11:28:46;;;;;;;12.60;11.40;;;35.30;25.80;;;;;;6088481;23;20382;-90
2021/03/30 11:31:29;;;;;;;13.00;11.70;;;34.10;23.40;;;;;;6088323;23;20405;-89
2021/03/30 11:34:17;;;;;;;13.07;11.83;;;34.50;25.70;;;;;;6133268;23;20417;-90
2021/03/30 11:36:47;;;;;;;11.90;10.80;;;33.50;23.40;;;;;;6112920;23;20358;-92
2021/03/30 11:39:16;;;;;;;17.37;15.70;;;34.60;24.80;;;;;;6082257;23;20413;-89
2021/03/30 11:41:42;;;;;;;11.70;10.60;;;33.70;24.20;;;;;;6083781;23;20427;-88
2021/03/30 11:44:08;;;;;;;11.60;10.50;;;33.80;25.10;;;;;;6105155;23;20484;-89
2021/03/30 11:46:34;;;;;;;15.30;12.63;;;32.60;24.30;;;;;;6086251;23;20157;-90
2021/03/30 11:49:25;;;;;;;11.93;10.73;;;34.10;24.00;;;;;;6117448;23;20405;-89
2021/03/30 11:51:54;;;;;;;12.30;10.17;;;34.40;24.00;;;;;;6109787;23;20394;-92
2021/03/30 11:56:54;;;;;;;11.80;10.70;;;33.20;20.60;;;;;;6112280;23;20453;-89
2021/03/30 11:59:30;;;;;;;15.07;12.90;;;33.20;23.10;;;;;;6097316;23;20387;-90
2021/03/30 12:01:56;;;;;;;13.30;12.07;;;35.10;26.20;;;;;;6084343;23;20502;-89
2021/03/30 12:04:26;;;;;;;15.70;14.20;;;33.80;23.10;;;;;;6102835;23;20381;-90
2021/03/30 12:06:55;;;;;;;13.40;12.00;;;;;;;;;;6082457;23;20150;-91
2021/03/30 12:09:22;;;;;;;10.37;9.37;;;32.30;20.40;;;;;;6110910;23;20359;-89
2021/03/30 12:11:48;;;;;;;9.73;8.87;;;32.90;21.10;;;;;;6087336;23;20378;-90
2021/03/30 12:14:17;;;;;;;9.67;8.70;;;33.40;20.80;;;;;;6107213;23;20398;-90
2021/03/30 12:16:46;;;;;;;13.10;10.93;;;33.30;19.70;;;;;;6185230;23;20151;-89
2021/03/30 12:19:14;;;;;;;21.93;17.67;;;33.40;20.30;;;;;;6181065;23;20480;-90
2021/03/30 12:21:51;;;;;;;13.03;11.73;;;35.30;21.00;;;;;;6079744;23;20452;-90
2021/03/30 12:24:27;;;;;;;10.73;9.53;;;34.00;20.80;;;;;;6084875;23;20389;-90
2021/03/30 12:26:57;;;;;;;14.37;12.97;;;34.90;20.50;;;;;;6106717;23;20441;-90
2021/03/30 12:29:26;;;;;;;11.20;9.90;;;35.30;22.30;;;;;;6082805;23;20381;-91
2021/03/30 12:31:52;;;;;;;17.37;10.20;;;34.00;19.60;;;;;;6110290;23;20374;-90
2021/03/30 12:34:24;;;;;;;13.23;11.07;;;34.60;20.60;;;;;;6110659;23;20389;-91
2021/03/30 12:36:58;;;;;;;21.23;15.73;;;34.20;19.90;;;;;;6110935;23;20468;-90
2021/03/30 12:39:31;;;;;;;10.23;9.17;;;34.10;21.50;;;;;;6083322;23;20393;-91
2021/03/30 12:42:06;;;;;;;11.80;10.60;;;34.30;20.00;;;;;;6081624;23;20425;-91
2021/03/30 12:44:32;;;;;;;11.93;9.90;;;33.60;19.50;;;;;;6078092;23;20477;-88
2021/03/30 12:46:58;;;;;;;13.70;12.37;;;33.50;21.00;;;;;;6105084;23;20386;-88
2021/03/30 12:49:29;;;;;;;10.00;9.10;;;33.70;21.80;;;;;;6103672;23;20373;-88
2021/03/30 12:51:54;;;;;;;10.13;9.13;;;34.30;20.70;;;;;;6083046;23;20390;-90
2021/03/30 12:54:23;;;;;;;11.13;10.07;;;34.40;21.40;;;;;;6184212;23;20714;-88
2021/03/30 12:57:07;;;;;;;12.60;9.20;;;34.50;21.20;;;;;;6080426;23;20198;-91
2021/03/30 12:59:43;;;;;;;13.10;10.77;;;36.70;20.20;;;;;;6081435;23;20431;-93
2021/03/30 13:02:10;;;;;;;10.37;9.30;;;37.10;23.20;;;;;;6170251;23;20437;-90
2021/03/30 13:04:38;;;;;;;11.33;9.13;;;33.20;21.80;;;;;;6074596;23;20395;-93
2021/03/30 13:07:18;;;;;;;13.40;9.87;;;34.60;21.80;;;;;;6076915;23;20422;-93
2021/03/30 13:09:47;;;;;;;10.50;9.30;;;36.60;20.40;;;;;;6078916;23;20401;-90
2021/03/30 13:12:59;;;;;;;12.40;10.97;;;34.80;21.00;;;;;;6083032;23;20391;-92
2021/03/30 13:15:40;;;;;;;10.10;8.53;;;36.90;20.50;;;;;;6165600;23;20383;-90
2021/03/30 13:18:31;;;;;;;10.33;9.00;;;34.70;21.00;;;;;;6080345;23;20395;-92
2021/03/30 13:20:59;;;;;;;9.20;8.40;;;34.20;20.50;;;;;;6083852;23;20411;-86
2021/03/30 13:23:25;;;;;;;9.27;8.37;;;34.10;20.00;;;;;;6067713;23;20431;-87
2021/03/30 13:25:51;;;;;;;10.20;9.30;;;34.40;19.90;;;;;;6066153;23;20890;-88
2021/03/30 13:28:16;;;;;;;9.77;8.87;;;34.30;19.40;;;;;;6068144;23;20207;-87
2021/03/30 13:30:43;;;;;;;11.87;10.67;;;34.70;19.70;;;;;;6072524;23;20161;-87
2021/03/30 13:33:09;;;;;;;10.27;9.20;;;34.50;19.50;;;;;;6075012;23;20151;-87
2021/03/30 13:35:35;;;;;;;13.50;9.70;;;34.50;19.60;;;;;;6066346;23;20874;-87
2021/03/30 13:38:01;;;;;;;11.90;9.70;;;34.20;19.60;;;;;;6063042;23;20419;-88
2021/03/30 13:40:30;;;;;;;10.43;9.40;;;34.30;19.60;;;;;;6064829;23;20161;-88
2021/03/30 13:42:55;;;;;;;10.70;9.80;;;34.30;19.80;;;;;;6062978;23;20197;-84
2021/03/30 13:45:23;;;;;;;12.83;9.40;;;33.70;19.90;;;;;;6062802;23;20384;-88
2021/03/30 13:47:49;;;;;;;10.47;9.47;;;34.10;21.20;;;;;;6064457;23;20219;-88
2021/03/30 13:50:14;;;;;;;9.03;8.33;;;34.10;20.20;;;;;;6062117;23;20407;-86
2021/03/30 13:52:40;;;;;;;8.90;8.10;;;34.00;19.90;;;;;;6065683;23;20703;-87
2021/03/30 13:55:07;;;;;;;12.10;8.50;;;34.10;19.70;;;;;;6070053;23;20268;-88
2021/03/30 13:57:33;;;;;;;13.63;9.30;;;33.70;19.80;;;;;;6065456;23;20343;-87
2021/03/30 13:59:58;;;;;;;10.00;9.10;;;33.50;20.20;;;;;;6091925;23;20852;-86
2021/03/30 14:02:24;;;;;;;8.80;8.03;;;33.60;20.20;;;;;;6093231;23;20508;-85
2021/03/30 14:04:50;;;;;;;10.63;9.40;;;33.50;20.40;;;;;;6070210;23;20147;-89
2021/03/30 14:07:15;;;;;;;9.50;8.60;;;33.40;19.90;;;;;;6095010;23;20165;-86
2021/03/30 14:09:41;;;;;;;9.90;8.90;;;33.10;20.30;;;;;;6094357;23;20288;-87
2021/03/30 14:12:18;;;;;;;10.00;8.63;;;33.10;20.40;;;;;;6067949;23;20150;-87
2021/03/30 14:14:47;;;;;;;9.17;8.27;;;33.00;20.20;;;;;;6069319;23;20156;-87
2021/03/30 14:17:25;;;;;;;10.33;8.80;;;33.00;20.00;;;;;;6095001;23;20470;-86
2021/03/30 14:19:53;;;;;;;112.50;55.67;;;32.90;20.00;;;;;;6067540;23;20382;-87
2021/03/30 14:22:27;;;;;;;13.20;10.30;;;33.50;20.40;;;;;;6094978;23;20436;-87
2021/03/30 14:25:14;;;;;;;11.33;9.83;;;33.20;19.90;;;;;;6093613;23;20367;-87
2021/03/30 14:27:46;;;;;;;15.80;9.73;;;33.20;20.20;;;;;;6093289;23;20374;-88
2021/03/30 14:30:12;;;;;;;10.80;8.80;;;33.20;20.10;;;;;;6094058;23;20480;-87
2021/03/30 14:32:40;;;;;;;8.50;7.70;;;33.00;20.00;;;;;;6094490;23;20397;-86
2021/03/30 14:35:08;;;;;;;19.60;7.90;;;33.00;20.30;;;;;;6096900;23;20387;-90
2021/03/30 14:37:42;;;;;;;10.17;9.07;;;32.90;21.90;;;;;;6209141;23;20387;-93
2021/03/30 14:42:43;;;;;;;9.87;8.73;;;32.50;20.40;;;;;;6094944;23;20437;-88
2021/03/30 14:53:41;;;;;;;11.33;7.90;;;32.00;20.20;;;;;;6103315;23;20394;-89
2021/03/30 14:58:37;;;;;;;9.63;8.73;;;31.50;20.30;;;;;;6093853;23;20885;-88
2021/03/30 15:04:02;;;;;;;9.73;7.93;;;31.20;20.60;;;;;;6096373;23;20536;-90
2021/03/30 15:06:27;;;;;;;11.73;9.27;;;30.90;20.90;;;;;;6116257;23;20427;-88
2021/03/30 15:08:57;;;;;;;13.33;10.00;;;30.60;21.00;;;;;;6087721;23;20402;-92
2021/03/30 15:11:32;;;;;;;11.33;10.07;;;30.60;21.30;;;;;;6089605;23;20162;-91
2021/03/30 15:16:34;;;;;;;12.23;9.40;;;30.00;21.10;;;;;;6084665;23;20445;-91
2021/03/30 15:19:18;;;;;;;14.57;9.33;;;31.90;22.30;;;;;;6120215;23;20448;-94
2021/03/30 15:24:44;;;;;;;;;;;;;;;;;;;;;
2021/03/30 15:27:33;;;;;;;11.80;9.17;;;28.20;22.20;;;;;;6263785;23;20396;-92
2021/03/30 15:30:28;;;;;;;16.60;9.40;;;27.90;22.80;;;;;;6172895;23;20417;-91
2021/03/30 15:32:53;;;;;;;11.77;9.20;;;27.50;21.90;;;;;;6114362;23;20384;-90
2021/03/30 15:35:20;;;;;;;9.60;8.13;;;27.30;23.20;;;;;;6099585;23;20393;-88
2021/03/30 15:38:04;;;;;;;10.60;8.77;;;27.00;22.30;;;;;;6114897;23;20157;-94
2021/03/30 15:40:36;;;;;;;11.53;9.57;;;27.40;23.70;;;;;;6139931;23;20362;-93
2021/03/30 15:52:34;;;;;;;8.80;7.47;;;26.40;22.40;;;;;;6249736;22;20506;-90
2021/03/30 15:57:33;;;;;;;12.40;8.60;;;26.00;24.30;;;;;;6242038;23;20382;-92
2021/03/30 16:00:10;;;;;;;10.93;7.80;;;25.90;23.00;;;;;;6220260;22;20441;-90
2021/03/30 16:02:43;;;;;;;13.50;7.90;;;26.70;24.30;;;;;;6270922;22;20427;-90
2021/03/30 16:05:39;;;;;;;14.63;10.17;;;25.60;26.40;;;;;;6271080;22;20360;-92
2021/03/30 16:08:29;;;;;;;12.50;8.23;;;25.20;24.60;;;;;;6215891;22;20468;-92
2021/03/30 16:11:00;;;;;;;9.67;8.60;;;25.80;25.50;;;;;;6268374;22;20401;-91
2021/03/30 16:16:40;;;;;;;12.93;11.13;;;26.40;23.80;;;;;;6216788;22;20437;-92
2021/03/30 16:19:34;;;;;;;10.27;8.43;;;25.00;23.70;;;;;;6235022;23;20759;-89
2021/03/30 16:24:38;;;;;;;10.60;9.27;;;24.90;23.90;;;;;;6165127;22;20818;-89
2021/03/30 16:27:13;;;;;;;13.17;11.70;;;24.90;26.40;;;;;;6183541;23;20429;-91
2021/03/30 16:29:53;;;;;;;17.47;10.00;;;25.00;24.10;;;;;;6178966;23;20389;-87
2021/03/30 16:32:46;;;;;;;20.93;11.10;;;24.70;25.80;;;;;;6129862;23;20469;-92
2021/03/30 16:35:49;;;;;;;10.80;9.53;;;24.30;25.40;;;;;;6116198;23;20421;-86
2021/03/30 16:38:39;;;;;;;10.67;8.90;;;25.40;25.70;;;;;;6103377;23;20454;-91
2021/03/30 16:55:22;;;;;;;23.63;14.33;;;24.10;34.90;;;;;;6081595;23;20537;-89
2021/03/30 17:14:16;;;;;;;10.60;8.70;;;23.40;30.20;;;;;;6112877;23;20450;-94
2021/03/30 17:16:58;;;;;;;20.20;14.43;;;23.20;29.10;;;;;;6106568;22;20513;-92
2021/03/30 17:19:31;;;;;;;9.87;8.83;;;23.20;29.30;;;;;;6183926;23;20437;-91
2021/03/30 17:25:16;;;;;;;10.77;8.43;;;22.90;28.50;;;;;;6113768;23;20469;-90
2021/03/30 17:27:42;;;;;;;8.63;7.10;;;21.70;29.10;;;;;;6117422;23;20378;-91
2021/03/30 17:37:58;;;;;;;11.77;8.83;;;21.90;27.80;;;;;;6179296;23;20462;-91
2021/03/30 17:41:07;;;;;;;13.37;8.20;;;19.80;27.80;;;;;;6214367;23;20393;-91
2021/03/30 17:51:40;;;;;;;6.10;5.60;;;20.90;28.90;;;;;;6061517;23;20450;-90
2021/03/30 18:07:05;;;;;;;12.63;8.13;;;19.90;41.60;;;;;;6092842;22;20458;-91
2021/03/30 18:09:31;;;;;;;11.60;8.70;;;19.60;33.10;;;;;;6092854;23;20403;-90
2021/03/30 18:17:35;;;;;;;17.30;9.40;;;19.30;40.10;;;;;;6195359;22;22036;-91
2021/03/30 18:31:07;;;;;;;9.03;8.00;;;18.20;32.20;;;;;;6053273;23;20430;-89
2021/03/30 18:41:57;;;;;;;6.63;6.10;;;17.60;33.70;;;;;;6114966;22;20461;-91
2021/03/30 21:18:01;;;;;;;7.03;6.40;;;13.50;50.90;;;;;;6044525;23;20411;-85
